Time;durP1;ratioP1;P1;durP2;ratioP2;P2;SDS_P1;SDS_P2;PMS_P1;PMS_P2;Temp;Humidity;BMP_temperature;BMP_pressure;BME280_temperature;BME280_humidity;BME280_pressure;Samples;Min_cycle;Max_cycle;Signal;HPM_P1;HPM_P2
2022/08/25 00:01:48;;;;;;;;;;;21.40;60.20;;;;;;5145238;27;20226;-46
2022/08/25 00:04:14;;;;;;;;;;;21.50;57.60;;;;;;5145442;27;19934;-45
2022/08/25 00:06:40;;;;;;;;;;;20.70;56.20;;;;;;5145949;27;20014;-46
2022/08/25 00:09:07;;;;;;;;;;;20.50;54.50;;;;;;5143754;27;20366;-46
2022/08/25 00:11:33;;;;;;;;;;;20.30;53.80;;;;;;5144861;27;20017;-45
2022/08/25 00:14:00;;;;;;;;;;;20.20;52.80;;;;;;5150803;27;19923;-45
2022/08/25 00:16:26;;;;;;;;;;;20.00;52.70;;;;;;5144910;27;20412;-47
2022/08/25 00:18:53;;;;;;;;;;;19.90;51.80;;;;;;5149944;27;19968;-55
2022/08/25 00:21:19;;;;;;;;;;;20.00;55.40;;;;;;5146810;27;19923;-48
2022/08/25 00:23:45;;;;;;;;;;;20.70;59.70;;;;;;5144968;27;20023;-46
2022/08/25 00:26:11;;;;;;;;;;;21.40;60.20;;;;;;5145131;27;20275;-47
2022/08/25 00:28:37;;;;;;;;;;;21.50;57.70;;;;;;5144769;27;19929;-46
2022/08/25 00:31:05;;;;;;;;;;;20.70;56.40;;;;;;5144860;27;19923;-47
2022/08/25 00:33:31;;;;;;;;;;;20.50;54.30;;;;;;5150397;27;19933;-46
2022/08/25 00:35:57;;;;;;;;;;;20.20;53.70;;;;;;5144882;27;19923;-46
2022/08/25 00:38:23;;;;;;;;;;;20.10;52.80;;;;;;5145063;27;20002;-53
2022/08/25 00:41:04;;;;;;;;;;;19.80;52.30;;;;;;5149876;27;20277;-46
2022/08/25 00:43:39;;;;;;;;;;;19.90;53.20;;;;;;5140872;27;19927;-48
2022/08/25 00:46:05;;;;;;;;;;;20.60;59.30;;;;;;5144623;27;20309;-56
2022/08/25 00:48:31;;;;;;;;;;;21.30;60.30;;;;;;5122676;27;20280;-48
2022/08/25 00:50:57;;;;;;;;;;;21.60;57.80;;;;;;5144203;27;20022;-44
2022/08/25 00:53:23;;;;;;;;;;;20.80;56.00;;;;;;5149801;27;19999;-45
2022/08/25 00:55:48;;;;;;;;;;;20.40;54.30;;;;;;5144265;27;20443;-47
2022/08/25 00:58:18;;;;;;;;;;;20.20;53.90;;;;;;5143322;27;20359;-47
2022/08/25 01:00:45;;;;;;;;;;;19.90;52.90;;;;;;5149629;27;19929;-50
2022/08/25 01:03:11;;;;;;;;;;;19.80;52.30;;;;;;5139506;27;19923;-46
2022/08/25 01:05:37;;;;;;;;;;;20.00;56.50;;;;;;5144144;27;19927;-46
2022/08/25 01:08:04;;;;;;;;;;;20.80;60.20;;;;;;5149630;27;19971;-47
2022/08/25 01:10:30;;;;;;;;;;;21.50;59.90;;;;;;5142935;27;19979;-45
2022/08/25 01:12:58;;;;;;;;;;;21.30;57.20;;;;;;5149372;27;20010;-46
2022/08/25 01:15:24;;;;;;;;;;;20.60;55.90;;;;;;5144109;27;19923;-45
2022/08/25 01:17:51;;;;;;;;;;;20.50;54.30;;;;;;5143607;27;19935;-46
2022/08/25 01:20:18;;;;;;;;;;;20.20;53.40;;;;;;5145701;27;19923;-45
2022/08/25 01:22:44;;;;;;;;;;;19.80;53.00;;;;;;5142460;27;19974;-47
2022/08/25 01:25:16;;;;;;;;;;;19.80;52.50;;;;;;5144029;27;20057;-46
2022/08/25 01:27:41;;;;;;;;;;;20.00;56.90;;;;;;5147894;27;20055;-51
2022/08/25 01:30:07;;;;;;;;;;;20.80;60.40;;;;;;5143818;27;19938;-47
2022/08/25 01:32:33;;;;;;;;;;;21.60;59.80;;;;;;5144736;27;20332;-53
2022/08/25 01:34:59;;;;;;;;;;;21.10;57.50;;;;;;5148449;27;20018;-47
2022/08/25 01:37:25;;;;;;;;;;;20.60;55.80;;;;;;5143775;27;19927;-48
2022/08/25 01:39:51;;;;;;;;;;;20.30;54.40;;;;;;5143969;27;19923;-47
2022/08/25 01:42:35;;;;;;;;;;;20.10;53.30;;;;;;5143643;27;19927;-47
2022/08/25 01:45:01;;;;;;;;;;;19.90;52.90;;;;;;5143409;27;19978;-48
2022/08/25 01:47:27;;;;;;;;;;;19.80;52.80;;;;;;5147523;27;20334;-46
2022/08/25 01:49:52;;;;;;;;;;;20.10;58.20;;;;;;5119532;27;19940;-46
2022/08/25 01:52:27;;;;;;;;;;;20.80;60.80;;;;;;5143456;27;19980;-46
2022/08/25 01:54:53;;;;;;;;;;;21.70;59.80;;;;;;5148805;27;19929;-45
2022/08/25 01:57:19;;;;;;;;;;;21.10;56.90;;;;;;5139459;27;19970;-48
2022/08/25 01:59:44;;;;;;;;;;;20.70;55.00;;;;;;5141722;27;19938;-46
2022/08/25 02:02:10;;;;;;;;;;;20.30;54.00;;;;;;5148562;27;19926;-47
2022/08/25 02:04:36;;;;;;;;;;;20.10;53.30;;;;;;5143319;27;20585;-48
2022/08/25 02:07:03;;;;;;;;;;;19.90;52.90;;;;;;5148816;27;19949;-46
2022/08/25 02:09:28;;;;;;;;;;;19.80;52.60;;;;;;5142696;27;20403;-50
2022/08/25 02:11:55;;;;;;;;;;;20.40;58.80;;;;;;5142951;27;19923;-48
2022/08/25 02:14:21;;;;;;;;;;;21.10;60.50;;;;;;5147862;27;20293;-47
2022/08/25 02:16:48;;;;;;;;;;;21.70;58.50;;;;;;5136633;27;19930;-48
2022/08/25 02:19:14;;;;;;;;;;;20.80;56.80;;;;;;5124406;27;19923;-46
2022/08/25 02:21:40;;;;;;;;;;;20.50;54.70;;;;;;5148134;27;20013;-48
2022/08/25 02:24:06;;;;;;;;;;;20.20;53.70;;;;;;5142595;27;20397;-47
2022/08/25 02:26:31;;;;;;;;;;;19.90;53.30;;;;;;5148053;27;19938;-46
2022/08/25 02:28:57;;;;;;;;;;;19.80;52.60;;;;;;5142068;27;20021;-45
2022/08/25 02:31:23;;;;;;;;;;;19.90;52.10;;;;;;5142590;27;19934;-47
2022/08/25 02:33:49;;;;;;;;;;;20.00;56.60;;;;;;5144192;27;20350;-47
2022/08/25 02:36:15;;;;;;;;;;;20.70;60.50;;;;;;5140972;27;19929;-45
2022/08/25 02:38:41;;;;;;;;;;;21.50;60.00;;;;;;5141342;27;20374;-48
2022/08/25 02:41:11;;;;;;;;;;;21.30;57.60;;;;;;5147940;27;20327;-45
2022/08/25 02:43:37;;;;;;;;;;;20.80;55.60;;;;;;5142582;27;19927;-46
2022/08/25 02:46:03;;;;;;;;;;;20.40;54.40;;;;;;5144739;27;19961;-56
2022/08/25 02:48:29;;;;;;;;;;;20.00;53.60;;;;;;5145867;27;19923;-46
2022/08/25 02:50:57;;;;;;;;;;;20.10;52.60;;;;;;5142167;27;19930;-53
2022/08/25 02:53:23;;;;;;;;;;;20.00;52.20;;;;;;5142597;27;19927;-47
2022/08/25 02:55:49;;;;;;;;;;;19.80;55.20;;;;;;5142243;27;19923;-46
2022/08/25 02:58:15;;;;;;;;;;;20.60;60.00;;;;;;5142379;27;19923;-49
2022/08/25 03:00:40;;;;;;;;;;;21.40;60.30;;;;;;5147826;27;20411;-47
2022/08/25 03:03:06;;;;;;;;;;;21.40;58.40;;;;;;5142206;27;19923;-46
2022/08/25 03:05:32;;;;;;;;;;;20.80;56.40;;;;;;5142191;27;19983;-45
2022/08/25 03:07:58;;;;;;;;;;;20.50;54.70;;;;;;5147992;27;19923;-45
2022/08/25 03:10:24;;;;;;;;;;;20.20;53.90;;;;;;5138461;27;19927;-46
2022/08/25 03:12:50;;;;;;;;;;;20.20;52.90;;;;;;5146139;27;19934;-47
2022/08/25 03:15:16;;;;;;;;;;;20.10;52.30;;;;;;5142361;27;19923;-47
2022/08/25 03:17:44;;;;;;;;;;;20.00;51.90;;;;;;5142269;27;19975;-46
2022/08/25 03:20:10;;;;;;;;;;;20.00;56.70;;;;;;5147265;27;20035;-45
2022/08/25 03:22:36;;;;;;;;;;;20.80;60.00;;;;;;5141858;27;19924;-46
2022/08/25 03:27:48;;;;;;;;;;;21.30;57.30;;;;;;5147238;27;19986;-48
2022/08/25 03:30:14;;;;;;;;;;;20.80;55.50;;;;;;5116881;27;19976;-48
2022/08/25 03:32:40;;;;;;;;;;;20.30;54.20;;;;;;5140828;27;19923;-47
2022/08/25 03:35:06;;;;;;;;;;;20.10;53.40;;;;;;5147482;27;19957;-45
2022/08/25 03:37:32;;;;;;;;;;;20.00;52.70;;;;;;5142020;27;20006;-46
2022/08/25 03:39:58;;;;;;;;;;;19.80;52.30;;;;;;5148731;27;20370;-47
2022/08/25 03:42:25;;;;;;;;;;;20.10;56.40;;;;;;5145616;27;19953;-47
2022/08/25 03:44:51;;;;;;;;;;;20.80;60.10;;;;;;5145694;27;19923;-46
2022/08/25 03:47:16;;;;;;;;;;;21.40;60.20;;;;;;5147562;27;19926;-50
2022/08/25 03:49:42;;;;;;;;;;;21.30;57.80;;;;;;5144198;27;19942;-47
2022/08/25 03:52:08;;;;;;;;;;;20.60;55.70;;;;;;5145726;27;19931;-46
2022/08/25 03:54:34;;;;;;;;;;;20.20;54.50;;;;;;5151036;27;20260;-49
2022/08/25 03:56:59;;;;;;;;;;;19.90;53.50;;;;;;5145328;27;19952;-46
2022/08/25 03:59:26;;;;;;;;;;;19.90;52.90;;;;;;5150673;27;20030;-47
2022/08/25 04:01:51;;;;;;;;;;;19.80;52.00;;;;;;5145371;27;19923;-47
2022/08/25 04:04:17;;;;;;;;;;;20.00;57.30;;;;;;5145524;27;20358;-46
2022/08/25 04:06:43;;;;;;;;;;;20.80;60.60;;;;;;5145549;27;19923;-46
2022/08/25 04:09:09;;;;;;;;;;;21.50;60.20;;;;;;5145183;27;20370;-48
2022/08/25 04:11:35;;;;;;;;;;;21.30;57.60;;;;;;5145330;27;20107;-47
2022/08/25 04:14:01;;;;;;;;;;;20.50;56.00;;;;;;5150774;27;19923;-45
2022/08/25 04:16:29;;;;;;;;;;;20.30;54.10;;;;;;5145466;27;20403;-46
2022/08/25 04:18:55;;;;;;;;;;;20.30;53.20;;;;;;5148698;27;19997;-52
2022/08/25 04:21:20;;;;;;;;;;;19.90;52.60;;;;;;5147398;27;20441;-46
2022/08/25 04:23:47;;;;;;;;;;;19.80;52.60;;;;;;5141251;27;19972;-46
2022/08/25 04:26:14;;;;;;;;;;;19.80;54.40;;;;;;5148832;27;19937;-49
2022/08/25 04:28:40;;;;;;;;;;;20.50;60.00;;;;;;5144933;27;19970;-46
2022/08/25 04:31:06;;;;;;;;;;;21.20;60.80;;;;;;5144860;27;19937;-45
2022/08/25 04:33:33;;;;;;;;;;;21.50;58.60;;;;;;5150222;27;19931;-46
2022/08/25 04:35:58;;;;;;;;;;;20.80;56.50;;;;;;5144682;27;19940;-46
2022/08/25 04:38:26;;;;;;;;;;;20.40;54.70;;;;;;5144643;27;20391;-50
2022/08/25 04:40:58;;;;;;;;;;;20.00;54.00;;;;;;5150266;27;19951;-49
2022/08/25 04:43:24;;;;;;;;;;;19.80;53.10;;;;;;5139216;27;20294;-46
2022/08/25 04:45:51;;;;;;;;;;;19.80;52.30;;;;;;5131483;27;19947;-46
2022/08/25 04:48:16;;;;;;;;;;;20.30;58.40;;;;;;5144389;27;19923;-51
2022/08/25 04:50:43;;;;;;;;;;;21.00;60.70;;;;;;5144479;27;19929;-46
2022/08/25 04:53:09;;;;;;;;;;;21.70;60.00;;;;;;5149512;27;19967;-45
2022/08/25 04:55:41;;;;;;;;;;;21.10;57.20;;;;;;5144455;27;19924;-47
2022/08/25 04:58:07;;;;;;;;;;;20.50;55.90;;;;;;5144576;27;19929;-47
2022/08/25 05:00:33;;;;;;;;;;;20.30;54.50;;;;;;5127782;27;19923;-46
2022/08/25 05:02:59;;;;;;;;;;;20.00;53.70;;;;;;5142785;27;19923;-46
2022/08/25 05:05:24;;;;;;;;;;;19.90;52.90;;;;;;5146531;27;20393;-55
2022/08/25 05:07:50;;;;;;;;;;;19.90;52.20;;;;;;5147875;27;20259;-47
2022/08/25 05:10:16;;;;;;;;;;;20.10;58.70;;;;;;5144215;27;19927;-46
2022/08/25 05:12:42;;;;;;;;;;;20.80;61.10;;;;;;5149507;27;20021;-47
2022/08/25 05:17:52;;;;;;;;;;;21.20;57.60;;;;;;5143905;27;19941;-45
2022/08/25 05:20:18;;;;;;;;;;;20.50;55.90;;;;;;5143983;27;19931;-47
2022/08/25 05:22:44;;;;;;;;;;;20.30;54.40;;;;;;5143931;27;19988;-48
2022/08/25 05:25:10;;;;;;;;;;;20.10;53.40;;;;;;5143854;27;20470;-47
2022/08/25 05:27:36;;;;;;;;;;;19.90;52.90;;;;;;5149222;27;19923;-46
2022/08/25 05:30:02;;;;;;;;;;;19.80;53.20;;;;;;5141521;27;20001;-48
2022/08/25 05:32:31;;;;;;;;;;;20.30;59.30;;;;;;5147169;27;20363;-56
2022/08/25 05:34:56;;;;;;;;;;;21.10;60.80;;;;;;5147152;27;19923;-46
2022/08/25 05:37:22;;;;;;;;;;;21.50;59.20;;;;;;5139764;27;20015;-48
2022/08/25 05:39:48;;;;;;;;;;;20.80;56.90;;;;;;5147186;27;19930;-46
2022/08/25 05:42:14;;;;;;;;;;;20.40;55.30;;;;;;5143401;27;19923;-47
2022/08/25 05:44:40;;;;;;;;;;;20.10;54.40;;;;;;5143264;27;19930;-46
2022/08/25 05:47:06;;;;;;;;;;;20.00;53.30;;;;;;5148747;27;19983;-46
2022/08/25 05:49:32;;;;;;;;;;;19.90;52.80;;;;;;5143197;27;19937;-46
2022/08/25 05:51:58;;;;;;;;;;;20.00;54.50;;;;;;5143234;27;19927;-50
2022/08/25 05:54:23;;;;;;;;;;;20.50;60.50;;;;;;5148745;27;19927;-48
2022/08/25 05:56:49;;;;;;;;;;;21.30;61.00;;;;;;5137891;27;19930;-46
2022/08/25 05:59:15;;;;;;;;;;;21.50;59.00;;;;;;5148788;27;20342;-45
2022/08/25 06:04:26;;;;;;;;;;;20.60;55.30;;;;;;5142075;27;19975;-46
2022/08/25 06:06:53;;;;;;;;;;;20.10;54.40;;;;;;5148499;27;20371;-46
2022/08/25 06:09:20;;;;;;;;;;;20.20;52.70;;;;;;5142868;27;19975;-46
2022/08/25 06:11:46;;;;;;;;;;;19.80;52.90;;;;;;5142855;27;20137;-47
2022/08/25 06:14:11;;;;;;;;;;;19.70;52.60;;;;;;5143607;27;19927;-49
2022/08/25 06:16:37;;;;;;;;;;;20.00;57.60;;;;;;5141250;27;19930;-46
2022/08/25 06:19:03;;;;;;;;;;;20.80;60.70;;;;;;5142933;27;20092;-53
2022/08/25 06:21:29;;;;;;;;;;;21.40;60.70;;;;;;5148410;27;19945;-46
2022/08/25 06:23:55;;;;;;;;;;;21.30;58.20;;;;;;5142589;27;19930;-47
2022/08/25 06:26:22;;;;;;;;;;;20.60;56.80;;;;;;5148127;27;20578;-46
2022/08/25 06:28:49;;;;;;;;;;;20.30;54.70;;;;;;5142702;27;19930;-48
2022/08/25 06:31:15;;;;;;;;;;;20.10;53.80;;;;;;5142681;27;19930;-47
2022/08/25 06:33:42;;;;;;;;;;;19.90;52.90;;;;;;5142366;27;19923;-48
2022/08/25 06:36:07;;;;;;;;;;;19.80;52.90;;;;;;5142601;27;19984;-49
2022/08/25 06:38:33;;;;;;;;;;;20.00;55.30;;;;;;5142472;27;19923;-46
2022/08/25 06:41:02;;;;;;;;;;;20.60;60.50;;;;;;5129534;27;20009;-46
2022/08/25 06:43:28;;;;;;;;;;;21.30;61.10;;;;;;5142502;27;20422;-48
2022/08/25 06:45:54;;;;;;;;;;;21.40;58.80;;;;;;5147773;27;19923;-45
2022/08/25 06:48:20;;;;;;;;;;;20.70;56.90;;;;;;5142337;27;19923;-46
2022/08/25 06:50:46;;;;;;;;;;;20.50;55.00;;;;;;5138561;27;19923;-46
2022/08/25 06:53:12;;;;;;;;;;;20.10;54.30;;;;;;5146126;27;20758;-45
2022/08/25 06:55:38;;;;;;;;;;;20.10;53.20;;;;;;5142357;27;19942;-45
2022/08/25 06:58:04;;;;;;;;;;;19.90;52.80;;;;;;5142247;27;20152;-48
2022/08/25 07:00:30;;;;;;;;;;;19.80;53.80;;;;;;5147644;27;19923;-46
2022/08/25 07:02:57;;;;;;;;;;;20.40;59.50;;;;;;5142099;27;19930;-48
2022/08/25 07:05:23;;;;;;;;;;;21.10;61.30;;;;;;5145302;27;19923;-53
2022/08/25 07:07:49;;;;;;;;;;;21.70;59.60;;;;;;5141673;27;19928;-46
2022/08/25 07:10:15;;;;;;;;;;;20.80;57.00;;;;;;5136627;27;20453;-47
2022/08/25 07:12:41;;;;;;;;;;;20.70;55.30;;;;;;5147457;27;20002;-49
2022/08/25 07:15:07;;;;;;;;;;;20.30;54.10;;;;;;5144047;27;19927;-46
2022/08/25 07:17:32;;;;;;;;;;;20.10;53.50;;;;;;5146264;27;19927;-46
2022/08/25 07:19:58;;;;;;;;;;;20.00;53.10;;;;;;5151856;27;20320;-46
2022/08/25 07:22:24;;;;;;;;;;;19.90;54.40;;;;;;5127774;27;20006;-47
2022/08/25 07:24:50;;;;;;;;;;;20.50;60.20;;;;;;5146885;27;19952;-55
2022/08/25 07:27:15;;;;;;;;;;;21.20;61.50;;;;;;5147644;27;19950;-50
2022/08/25 07:29:41;;;;;;;;;;;21.70;59.70;;;;;;5143903;27;20289;-45
2022/08/25 07:32:07;;;;;;;;;;;20.90;57.10;;;;;;5151537;27;19946;-45
2022/08/25 07:37:17;;;;;;;;;;;20.30;54.80;;;;;;5146145;27;19930;-46
2022/08/25 07:39:43;;;;;;;;;;;20.30;53.50;;;;;;5151241;27;19922;-47
2022/08/25 07:42:10;;;;;;;;;;;20.00;53.30;;;;;;5127241;27;20381;-45
2022/08/25 07:44:36;;;;;;;;;;;20.00;52.60;;;;;;5145580;27;19934;-46
2022/08/25 07:47:02;;;;;;;;;;;20.00;52.20;;;;;;5145725;27;20386;-45
2022/08/25 07:49:28;;;;;;;;;;;20.20;57.50;;;;;;5145601;27;20328;-46
2022/08/25 07:51:54;;;;;;;;;;;20.90;61.20;;;;;;5147176;27;20443;-55
2022/08/25 07:54:19;;;;;;;;;;;21.50;61.40;;;;;;5150054;27;19995;-48
2022/08/25 07:56:45;;;;;;;;;;;21.40;58.60;;;;;;5145883;27;19931;-48
2022/08/25 07:59:11;;;;;;;;;;;20.70;56.50;;;;;;5151155;27;19970;-46
2022/08/25 08:01:37;;;;;;;;;;;20.50;55.00;;;;;;5145403;27;20294;-47
2022/08/25 08:04:03;;;;;;;;;;;20.30;54.20;;;;;;5142100;27;19923;-47
2022/08/25 08:06:29;;;;;;;;;;;20.10;53.60;;;;;;5149012;27;19934;-46
2022/08/25 08:08:55;;;;;;;;;;;20.30;52.90;;;;;;5145386;27;19940;-48
2022/08/25 08:11:22;;;;;;;;;;;19.90;52.90;;;;;;5145290;27;19930;-45
2022/08/25 08:13:48;;;;;;;;;;;20.00;52.30;;;;;;5150913;27;20023;-47
2022/08/25 08:16:14;;;;;;;;;;;20.30;59.30;;;;;;5126708;27;19928;-45
2022/08/25 08:18:41;;;;;;;;;;;21.10;61.50;;;;;;5150744;27;19971;-46
2022/08/25 08:21:26;;;;;;;;;;;21.80;60.30;;;;;;5144950;27;20046;-45
2022/08/25 08:23:52;;;;;;;;;;;20.80;58.10;;;;;;5139193;27;20018;-48
2022/08/25 08:26:18;;;;;;;;;;;20.50;55.80;;;;;;5149231;27;19968;-47
2022/08/25 08:28:44;;;;;;;;;;;20.40;54.90;;;;;;5144888;27;20223;-47
2022/08/25 08:31:10;;;;;;;;;;;20.30;53.70;;;;;;5144785;27;19923;-45
2022/08/25 08:33:35;;;;;;;;;;;20.20;53.30;;;;;;5150190;27;19930;-47
2022/08/25 08:36:05;;;;;;;;;;;20.10;53.00;;;;;;5144849;27;19923;-45
2022/08/25 08:38:31;;;;;;;;;;;19.90;53.10;;;;;;5126223;27;20126;-47
2022/08/25 08:43:44;;;;;;;;;;;20.50;60.50;;;;;;5142915;27;19962;-46
2022/08/25 08:46:10;;;;;;;;;;;21.30;61.60;;;;;;5143425;27;19923;-52
2022/08/25 08:48:35;;;;;;;;;;;21.60;59.70;;;;;;5150095;27;19934;-46
2022/08/25 08:51:16;;;;;;;;;;;20.90;57.20;;;;;;5144782;27;19937;-46
2022/08/25 08:53:51;;;;;;;;;;;20.70;55.40;;;;;;5149129;27;20026;-56
2022/08/25 08:56:18;;;;;;;;;;;20.30;54.30;;;;;;5148325;27;19967;-46
2022/08/25 08:58:44;;;;;;;;;;;20.10;53.90;;;;;;5142582;27;20338;-50
2022/08/25 09:01:11;;;;;;;;;;;19.90;53.60;;;;;;5145926;27;19923;-46
2022/08/25 09:03:37;;;;;;;;;;;20.10;52.80;;;;;;5144215;27;19923;-47
2022/08/25 09:06:10;;;;;;;;;;;19.90;52.90;;;;;;5142920;27;19927;-49
2022/08/25 09:08:37;;;;;;;;;;;20.00;56.90;;;;;;5149517;27;19929;-45
2022/08/25 09:11:11;;;;;;;;;;;20.90;61.20;;;;;;5143891;27;19998;-47
2022/08/25 09:13:45;;;;;;;;;;;21.50;61.70;;;;;;5144084;27;19929;-45
2022/08/25 09:19:20;;;;;;;;;;;20.80;57.10;;;;;;5134602;27;19929;-45
2022/08/25 09:21:47;;;;;;;;;;;20.60;55.10;;;;;;5143844;27;19930;-46
2022/08/25 09:24:22;;;;;;;;;;;20.30;54.20;;;;;;5149382;27;20434;-49
2022/08/25 09:27:01;;;;;;;;;;;20.30;53.80;;;;;;5143592;27;19926;-47
2022/08/25 09:29:28;;;;;;;;;;;20.20;53.10;;;;;;5143683;27;19931;-45
2022/08/25 09:31:55;;;;;;;;;;;20.00;53.20;;;;;;5149324;27;19927;-46
2022/08/25 09:34:22;;;;;;;;;;;20.20;52.40;;;;;;5125330;27;19942;-46
2022/08/25 09:36:51;;;;;;;;;;;19.80;53.10;;;;;;5134578;27;20309;-48
2022/08/25 09:39:18;;;;;;;;;;;20.40;58.10;;;;;;5148146;27;19922;-49
2022/08/25 09:41:44;;;;;;;;;;;21.10;61.10;;;;;;5143443;27;19927;-46
2022/08/25 09:44:20;;;;;;;;;;;21.80;61.00;;;;;;5144686;27;20290;-55
2022/08/25 09:46:56;;;;;;;;;;;21.20;58.40;;;;;;5148900;27;20441;-47
2022/08/25 09:49:22;;;;;;;;;;;20.70;56.50;;;;;;5143287;27;20366;-45
2022/08/25 09:51:47;;;;;;;;;;;20.30;55.30;;;;;;5145733;27;19971;-55
2022/08/25 09:54:14;;;;;;;;;;;20.40;54.20;;;;;;5140537;27;19926;-50
2022/08/25 09:56:50;;;;;;;;;;;20.20;54.00;;;;;;5141013;27;19927;-45
2022/08/25 09:59:26;;;;;;;;;;;20.30;53.10;;;;;;5148934;27;19927;-50
2022/08/25 10:01:52;;;;;;;;;;;20.00;53.10;;;;;;5143137;27;20006;-46
2022/08/25 10:04:24;;;;;;;;;;;19.80;52.80;;;;;;5142813;27;19923;-48
2022/08/25 10:06:51;;;;;;;;;;;19.80;53.00;;;;;;5146437;27;19955;-48
2022/08/25 10:09:28;;;;;;;;;;;20.40;59.50;;;;;;5143089;27;19933;-45
2022/08/25 10:11:54;;;;;;;;;;;21.20;61.40;;;;;;5139968;27;19930;-50
2022/08/25 10:14:26;;;;;;;;;;;21.90;60.30;;;;;;5143044;27;19923;-48
2022/08/25 10:16:53;;;;;;;;;;;21.10;57.60;;;;;;5143113;27;20438;-46
2022/08/25 10:19:24;;;;;;;;;;;20.60;56.20;;;;;;5141669;27;20117;-46
2022/08/25 10:22:09;;;;;;;;;;;20.40;55.00;;;;;;5148280;27;19927;-45
2022/08/25 10:24:37;;;;;;;;;;;20.40;54.10;;;;;;5142804;27;19923;-45
2022/08/25 10:27:32;;;;;;;;;;;20.20;53.50;;;;;;5142785;27;20584;-47
2022/08/25 10:30:11;;;;;;;;;;;20.20;53.00;;;;;;5134146;27;19971;-46
2022/08/25 10:32:43;;;;;;;;;;;20.00;52.90;;;;;;5137154;27;19927;-47
2022/08/25 10:35:28;;;;;;;;;;;19.90;55.20;;;;;;5142563;27;19928;-46
2022/08/25 10:38:07;;;;;;;;;;;20.70;60.30;;;;;;5146153;27;19934;-47
2022/08/25 10:40:43;;;;;;;;;;;21.40;61.50;;;;;;5142523;27;19952;-46
2022/08/25 10:43:27;;;;;;;;;;;21.60;59.00;;;;;;5142637;27;19971;-45
2022/08/25 10:46:00;;;;;;;;;;;21.00;56.40;;;;;;5147922;27;19923;-46
2022/08/25 10:48:33;;;;;;;;;;;20.80;55.00;;;;;;5113678;27;19997;-46
2022/08/25 10:51:02;;;;;;;;;;;20.50;54.00;;;;;;5133640;27;19930;-46
2022/08/25 10:53:30;;;;;;;;;;;20.50;53.40;;;;;;5144885;27;20378;-45
2022/08/25 10:56:02;;;;;;;;;;;20.30;53.00;;;;;;5141234;27;19990;-46
2022/08/25 10:58:46;;;;;;;;;;;20.10;52.90;;;;;;5139456;27;20438;-48
2022/08/25 11:01:14;;;;;;;;;;;20.00;52.70;;;;;;5147841;27;19923;-47
2022/08/25 11:03:43;;;;;;;;;;;19.90;53.10;;;;;;5140730;27;19930;-44
2022/08/25 11:06:13;;;;;;;;;;;19.90;52.60;;;;;;5142236;27;19923;-47
2022/08/25 11:08:43;;;;;;;;;;;19.90;54.80;;;;;;5142877;27;20148;-48
2022/08/25 11:11:20;;;;;;;;;;;20.80;59.70;;;;;;5141319;27;19923;-48
2022/08/25 11:13:45;;;;;;;;;;;21.40;60.70;;;;;;5140940;27;19927;-45
2022/08/25 11:16:13;;;;;;;;;;;21.70;58.80;;;;;;5147654;27;19923;-47
2022/08/25 11:18:44;;;;;;;;;;;21.00;56.40;;;;;;5142118;27;19927;-49
2022/08/25 11:21:14;;;;;;;;;;;20.70;55.10;;;;;;5140948;27;20105;-45
2022/08/25 11:23:42;;;;;;;;;;;20.40;54.30;;;;;;5147642;27;19929;-45
2022/08/25 11:26:12;;;;;;;;;;;20.20;54.00;;;;;;5138519;27;20013;-47
2022/08/25 11:28:56;;;;;;;;;;;20.30;53.10;;;;;;5142374;27;19927;-52
2022/08/25 11:31:22;;;;;;;;;;;19.90;53.20;;;;;;5147266;27;20326;-46
2022/08/25 11:33:48;;;;;;;;;;;20.00;52.60;;;;;;5140985;27;20051;-48
2022/08/25 11:36:34;;;;;;;;;;;19.90;52.60;;;;;;5146210;27;19927;-44
2022/08/25 11:39:26;;;;;;;;;;;20.00;52.30;;;;;;5147476;27;20389;-47
2022/08/25 11:41:54;;;;;;;;;;;20.40;59.00;;;;;;5117433;27;19930;-47
2022/08/25 11:44:29;;;;;;;;;;;21.30;60.70;;;;;;5139088;27;19923;-53
2022/08/25 11:47:07;;;;;;;;;;;21.80;58.90;;;;;;5143763;27;21191;-45
2022/08/25 11:49:43;;;;;;;;;;;21.00;56.70;;;;;;5140459;27;20343;-45
2022/08/25 11:52:28;;;;;;;;;;;20.80;54.80;;;;;;5140481;27;20155;-45
2022/08/25 11:54:54;;;;;;;;;;;20.50;53.90;;;;;;5147028;27;20018;-48
2022/08/25 11:57:21;;;;;;;;;;;20.40;53.40;;;;;;5141699;27;19927;-48
2022/08/25 11:59:50;;;;;;;;;;;20.30;53.00;;;;;;5141603;27;19923;-46
2022/08/25 12:02:35;;;;;;;;;;;20.10;52.90;;;;;;5148432;27;20021;-46
2022/08/25 12:05:01;;;;;;;;;;;20.20;52.40;;;;;;5141729;27;19931;-44
2022/08/25 12:07:28;;;;;;;;;;;20.00;52.50;;;;;;5145116;27;19938;-47
2022/08/25 12:09:54;;;;;;;;;;;19.90;52.60;;;;;;5150813;27;20350;-46
2022/08/25 12:12:26;;;;;;;;;;;20.10;51.90;;;;;;5145245;27;19927;-48
2022/08/25 12:14:51;;;;;;;;;;;20.20;53.00;;;;;;5150614;27;20397;-48
2022/08/25 12:17:23;;;;;;;;;;;20.80;58.00;;;;;;5124502;27;19923;-46
2022/08/25 12:19:50;;;;;;;;;;;21.50;59.40;;;;;;5145102;27;20179;-47
2022/08/25 12:22:20;;;;;;;;;;;21.80;57.70;;;;;;5145520;27;19929;-50
2022/08/25 12:24:50;;;;;;;;;;;21.00;55.90;;;;;;5144733;27;19922;-46
2022/08/25 12:27:27;;;;;;;;;;;20.60;55.10;;;;;;5144954;27;19929;-45
2022/08/25 12:29:56;;;;;;;;;;;20.60;53.70;;;;;;5147625;27;20383;-47
2022/08/25 12:32:33;;;;;;;;;;;20.30;53.50;;;;;;5144778;27;19930;-48
2022/08/25 12:35:12;;;;;;;;;;;20.30;52.90;;;;;;5143435;27;19933;-45
2022/08/25 12:37:52;;;;;;;;;;;20.30;52.40;;;;;;5150303;27;19946;-46
2022/08/25 12:40:22;;;;;;;;;;;20.30;52.00;;;;;;5139390;27;19923;-47
2022/08/25 12:42:48;;;;;;;;;;;20.00;52.50;;;;;;5143042;27;20338;-46
2022/08/25 12:45:22;;;;;;;;;;;20.00;52.10;;;;;;5148740;27;19927;-46
2022/08/25 12:47:48;;;;;;;;;;;20.00;51.90;;;;;;5144453;27;20374;-45
2022/08/25 12:50:27;;;;;;;;;;;20.30;55.40;;;;;;5142264;27;19923;-48
2022/08/25 12:52:53;;;;;;;;;;;21.00;58.50;;;;;;5149963;27;19994;-47
2022/08/25 12:55:19;;;;;;;;;;;21.80;59.00;;;;;;5142958;27;19927;-48
2022/08/25 12:57:46;;;;;;;;;;;21.40;56.70;;;;;;5141029;27;20013;-54
2022/08/25 13:00:28;;;;;;;;;;;20.80;55.60;;;;;;5145157;27;20434;-47
2022/08/25 13:03:03;;;;;;;;;;;20.70;54.10;;;;;;5143009;27;19923;-46
2022/08/25 13:05:48;;;;;;;;;;;20.60;53.10;;;;;;5143612;27;20022;-55
2022/08/25 13:08:24;;;;;;;;;;;20.40;52.50;;;;;;5149501;27;19940;-47
2022/08/25 13:10:53;;;;;;;;;;;20.30;52.60;;;;;;5142839;27;19930;-46
2022/08/25 13:13:28;;;;;;;;;;;20.20;52.40;;;;;;5143810;27;19943;-45
2022/08/25 13:16:00;;;;;;;;;;;20.10;52.10;;;;;;5148217;27;19964;-57
2022/08/25 13:18:26;;;;;;;;;;;20.00;52.20;;;;;;5140054;27;19931;-46
2022/08/25 13:21:07;;;;;;;;;;;20.00;52.00;;;;;;5146542;27;20340;-54
2022/08/25 13:23:34;;;;;;;;;;;20.10;54.60;;;;;;5148059;27;19927;-47
2022/08/25 13:26:00;;;;;;;;;;;20.90;58.50;;;;;;5142593;27;19923;-46
2022/08/25 13:28:28;;;;;;;;;;;21.60;58.80;;;;;;5149317;27;20381;-45
2022/08/25 13:30:57;;;;;;;;;;;21.50;56.70;;;;;;5143597;27;19975;-46
2022/08/25 13:33:23;;;;;;;;;;;20.80;55.40;;;;;;5143439;27;19975;-47
2022/08/25 13:37:26;;;;;;;;;;;20.70;54.10;;;;;;5143699;27;19923;-47
2022/08/25 13:38:36;;;;;;;;;;;20.50;53.40;;;;;;5143317;27;19931;-47
2022/08/25 13:41:04;;;;;;;;;;;20.40;52.90;;;;;;5143535;27;20392;-47
2022/08/25 13:43:30;;;;;;;;;;;20.20;52.70;;;;;;5148903;27;19923;-46
2022/08/25 13:45:56;;;;;;;;;;;20.10;52.10;;;;;;5143313;27;20443;-46
2022/08/25 13:48:51;;;;;;;;;;;20.00;52.30;;;;;;5143299;27;19991;-49
2022/08/25 13:51:21;;;;;;;;;;;20.10;52.10;;;;;;5134842;27;19923;-45
2022/08/25 13:53:48;;;;;;;;;;;20.50;56.70;;;;;;5137780;27;19987;-47
2022/08/25 13:56:20;;;;;;;;;;;21.30;59.00;;;;;;5141484;27;19934;-46
2022/08/25 13:58:46;;;;;;;;;;;21.80;57.40;;;;;;5128735;27;19927;-46
2022/08/25 14:01:21;;;;;;;;;;;21.20;55.60;;;;;;5143184;27;19930;-47
2022/08/25 14:03:47;;;;;;;;;;;20.80;54.40;;;;;;5143108;27;19953;-45
2022/08/25 14:06:13;;;;;;;;;;;20.60;53.40;;;;;;5148726;27;19927;-45
2022/08/25 14:08:42;;;;;;;;;;;20.40;52.80;;;;;;5143014;27;19976;-45
2022/08/25 14:11:15;;;;;;;;;;;20.40;52.70;;;;;;5145049;27;20786;-53
2022/08/25 14:13:42;;;;;;;;;;;20.40;52.20;;;;;;5143249;27;19923;-45
2022/08/25 14:16:18;;;;;;;;;;;20.40;51.90;;;;;;5142791;27;19929;-46
2022/08/25 14:18:47;;;;;;;;;;;20.30;51.80;;;;;;5148308;27;20410;-46
2022/08/25 14:21:13;;;;;;;;;;;20.20;52.00;;;;;;5142737;27;19923;-46
2022/08/25 14:23:39;;;;;;;;;;;20.30;51.70;;;;;;5141223;27;20447;-47
2022/08/25 14:26:05;;;;;;;;;;;20.00;52.10;;;;;;5148008;27;20037;-46
2022/08/25 14:28:32;;;;;;;;;;;20.00;52.00;;;;;;5142472;27;20386;-45
2022/08/25 14:30:58;;;;;;;;;;;20.00;51.70;;;;;;5137458;27;19931;-47
2022/08/25 14:33:28;;;;;;;;;;;20.10;51.30;;;;;;5147854;27;19927;-46
2022/08/25 14:35:54;;;;;;;;;;;19.80;53.90;;;;;;5141415;27;19931;-48
2022/08/25 14:38:20;;;;;;;;;;;20.70;57.50;;;;;;5141209;27;20024;-56
2022/08/25 14:40:46;;;;;;;;;;;21.30;58.50;;;;;;5146907;27;20285;-48